Time;durP1;ratioP1;P1;durP2;ratioP2;P2;SDS_P1;SDS_P2;PMS_P1;PMS_P2;Temp;Humidity;BMP_temperature;BMP_pressure;BME280_temperature;BME280_humidity;BME280_pressure;Samples;Min_cycle;Max_cycle;Signal;HPM_P1;HPM_P2
2021/01/11 00:02:22;;;;;;;67.43;34.08;;;;;;;;;;5019142;28;20400;-95
2021/01/11 00:04:48;;;;;;;74.50;34.42;;;;;;;;;;5019303;28;20026;-94
2021/01/11 00:07:14;;;;;;;73.40;34.28;;;;;;;;;;5018187;28;20026;-94
2021/01/11 00:09:40;;;;;;;69.93;32.80;;;;;;;;;;5018157;28;20029;-93
2021/01/11 00:12:07;;;;;;;74.30;35.58;;;;;;;;;;5018840;28;20109;-94
2021/01/11 00:14:33;;;;;;;76.35;34.20;;;;;;;;;;5017399;28;20050;-93
2021/01/11 00:16:59;;;;;;;73.25;34.63;;;;;;;;;;5019129;28;20033;-93
2021/01/11 00:22:57;;;;;;;69.22;33.70;;;;;;;;;;5019070;28;20319;-93
2021/01/11 00:25:23;;;;;;;71.20;33.85;;;;;;;;;;5018585;28;20108;-95
2021/01/11 00:27:49;;;;;;;69.03;34.15;;;;;;;;;;5018582;28;20022;-94
2021/01/11 00:30:16;;;;;;;70.72;35.65;;;;;;;;;;5018905;28;20022;-94
2021/01/11 00:32:42;;;;;;;72.97;34.72;;;;;;;;;;5017797;28;20057;-93
2021/01/11 00:35:08;;;;;;;71.93;34.42;;;;;;;;;;5018959;28;20045;-94
2021/01/11 00:37:35;;;;;;;73.70;34.15;;;;;;;;;;5017682;28;20051;-92
2021/01/11 00:40:01;;;;;;;70.88;34.78;;;;;;;;;;5018683;28;20099;-94
2021/01/11 00:42:27;;;;;;;72.28;35.13;;;;;;;;;;5018490;28;20026;-94
2021/01/11 00:44:53;;;;;;;76.70;34.45;;;;;;;;;;5017671;28;20037;-93
2021/01/11 00:47:19;;;;;;;70.93;33.90;;;;;;;;;;5018334;28;20093;-94
2021/01/11 00:49:45;;;;;;;73.80;34.67;;;;;;;;;;5018533;28;20026;-94
2021/01/11 00:52:11;;;;;;;73.85;35.58;;;;;;;;;;5018581;28;20033;-94
2021/01/11 00:54:38;;;;;;;64.75;32.25;;;;;;;;;;5017267;28;20029;-94
2021/01/11 00:57:04;;;;;;;69.20;33.85;;;;;;;;;;5018451;28;20076;-93
2021/01/11 00:59:30;;;;;;;70.25;33.75;;;;;;;;;;5018377;28;20028;-93
2021/01/11 01:01:57;;;;;;;72.43;34.63;;;;;;;;;;5018348;28;20032;-94
2021/01/11 01:07:26;;;;;;;73.43;35.10;;;;;;;;;;5018318;28;20033;-93
2021/01/11 01:09:52;;;;;;;68.20;32.95;;;;;;;;;;5017802;28;20022;-94
2021/01/11 01:12:19;;;;;;;69.75;33.80;;;;;;;;;;5017785;28;20417;-92
2021/01/11 01:14:45;;;;;;;68.80;33.72;;;;;;;;;;5016958;28;20030;-93
2021/01/11 01:17:11;;;;;;;67.43;34.35;;;;;;;;;;5017115;28;20404;-94
2021/01/11 01:19:37;;;;;;;70.95;33.75;;;;;;;;;;5016537;28;20352;-93
2021/01/11 01:22:03;;;;;;;72.80;34.28;;;;;;;;;;5018255;28;20037;-94
2021/01/11 01:24:29;;;;;;;71.03;34.00;;;;;;;;;;5017114;28;20026;-94
2021/01/11 01:26:55;;;;;;;66.38;32.72;;;;;;;;;;5017882;28;20037;-93
2021/01/11 01:29:21;;;;;;;73.15;33.88;;;;;;;;;;5018137;28;20022;-94
2021/01/11 01:31:47;;;;;;;69.95;33.63;;;;;;;;;;5018036;28;20041;-94
2021/01/11 01:34:13;;;;;;;66.18;32.65;;;;;;;;;;5018035;28;20025;-94
2021/01/11 01:36:40;;;;;;;70.30;34.05;;;;;;;;;;5018135;28;20030;-94
2021/01/11 01:39:06;;;;;;;70.13;33.20;;;;;;;;;;5016787;28;20327;-92
2021/01/11 01:41:32;;;;;;;67.00;31.75;;;;;;;;;;5017948;28;20034;-94
2021/01/11 01:43:58;;;;;;;61.40;30.70;;;;;;;;;;5017597;28;20034;-92
2021/01/11 01:46:24;;;;;;;64.97;32.35;;;;;;;;;;5017640;28;20060;-93
2021/01/11 01:48:50;;;;;;;68.15;33.63;;;;;;;;;;5018076;28;20416;-92
2021/01/11 01:51:16;;;;;;;68.47;34.38;;;;;;;;;;5017437;28;20068;-94
2021/01/11 01:53:44;;;;;;;69.15;33.67;;;;;;;;;;5017875;28;20030;-94
2021/01/11 01:56:11;;;;;;;68.47;33.67;;;;;;;;;;5019465;28;20067;-95
2021/01/11 01:58:37;;;;;;;71.40;34.90;;;;;;;;;;5021802;28;20022;-94
2021/01/11 02:01:03;;;;;;;69.30;34.92;;;;;;;;;;5036939;28;20050;-94
2021/01/11 02:03:29;;;;;;;71.65;33.58;;;;;;;;;;5021606;28;20030;-93
2021/01/11 02:09:06;;;;;;;70.10;35.00;;;;;;;;;;5021485;28;20105;-94
2021/01/11 02:11:41;;;;;;;71.75;34.90;;;;;;;;;;5021415;28;20053;-95
2021/01/11 02:14:26;;;;;;;64.72;32.88;;;;;;;;;;5021304;28;20129;-93
2021/01/11 02:17:02;;;;;;;69.82;34.53;;;;;;;;;;5021407;28;20018;-93
2021/01/11 02:19:51;;;;;;;67.28;33.65;;;;;;;;;;5020807;28;20028;-93
2021/01/11 02:22:20;;;;;;;72.25;34.97;;;;;;;;;;4983420;28;20043;-94
2021/01/11 02:24:46;;;;;;;71.47;34.47;;;;;;;;;;4999725;28;20042;-95
2021/01/11 02:27:30;;;;;;;74.30;35.75;;;;;;;;;;4999950;28;20041;-94
2021/01/11 02:30:03;;;;;;;71.90;34.53;;;;;;;;;;4983313;28;20022;-94
2021/01/11 02:32:30;;;;;;;71.05;35.00;;;;;;;;;;4983117;28;20089;-93
2021/01/11 02:40:44;;;;;;;73.18;35.78;;;;;;;;;;4999573;28;19976;-94
2021/01/11 02:43:11;;;;;;;75.45;35.75;;;;;;;;;;4998908;28;20061;-94
2021/01/11 02:45:37;;;;;;;74.55;35.70;;;;;;;;;;4999131;28;20038;-93
2021/01/11 02:48:10;;;;;;;72.68;35.28;;;;;;;;;;4999198;28;20069;-95
2021/01/11 02:51:03;;;;;;;74.30;36.30;;;;;;;;;;4999263;28;20023;-94
2021/01/11 02:53:33;;;;;;;77.47;37.10;;;;;;;;;;4999421;28;20320;-94
2021/01/11 02:56:02;;;;;;;75.72;36.10;;;;;;;;;;4999252;28;20046;-93
2021/01/11 02:58:53;;;;;;;72.22;36.20;;;;;;;;;;5002797;28;20144;-94
2021/01/11 03:01:19;;;;;;;71.30;35.85;;;;;;;;;;5020379;28;20046;-93
2021/01/11 03:03:49;;;;;;;74.10;35.75;;;;;;;;;;5020640;28;20034;-94
2021/01/11 03:06:15;;;;;;;73.78;36.05;;;;;;;;;;5019211;28;20026;-93
2021/01/11 03:08:41;;;;;;;73.03;34.65;;;;;;;;;;5019127;28;20022;-94
2021/01/11 03:11:07;;;;;;;70.03;34.78;;;;;;;;;;5020436;28;20052;-92
2021/01/11 03:13:33;;;;;;;77.18;36.97;;;;;;;;;;5019816;28;20046;-92
2021/01/11 03:16:00;;;;;;;78.32;38.10;;;;;;;;;;5020187;28;20333;-90
2021/01/11 03:18:26;;;;;;;79.90;37.05;;;;;;;;;;5020418;28;20397;-90
2021/01/11 03:20:52;;;;;;;74.43;36.30;;;;;;;;;;5020280;28;20076;-90
2021/01/11 03:23:18;;;;;;;71.00;35.97;;;;;;;;;;5020300;28;20038;-90
2021/01/11 03:25:44;;;;;;;75.78;35.72;;;;;;;;;;5019865;28;20030;-90
2021/01/11 03:28:11;;;;;;;74.15;36.22;;;;;;;;;;5019865;28;20405;-89
2021/01/11 03:30:37;;;;;;;75.10;36.72;;;;;;;;;;5020046;28;20316;-92
2021/01/11 03:33:03;;;;;;;72.93;36.45;;;;;;;;;;5019990;28;20339;-92
2021/01/11 03:35:29;;;;;;;78.50;38.28;;;;;;;;;;5018224;28;20041;-91
2021/01/11 03:37:55;;;;;;;79.00;37.17;;;;;;;;;;5019525;28;20084;-92
2021/01/11 03:40:21;;;;;;;80.30;38.70;;;;;;;;;;5019651;28;20026;-92
2021/01/11 03:42:47;;;;;;;73.15;35.30;;;;;;;;;;5019372;28;20040;-91
2021/01/11 03:45:13;;;;;;;71.55;35.15;;;;;;;;;;5019590;28;20034;-93
2021/01/11 03:47:39;;;;;;;78.40;37.55;;;;;;;;;;5019398;28;20061;-93
2021/01/11 03:50:06;;;;;;;70.35;35.58;;;;;;;;;;5019494;28;20408;-92
2021/01/11 03:52:36;;;;;;;70.45;35.20;;;;;;;;;;5019567;28;20037;-93
2021/01/11 03:55:03;;;;;;;76.72;36.90;;;;;;;;;;5019245;28;20018;-92
2021/01/11 03:57:30;;;;;;;72.30;35.55;;;;;;;;;;5019025;28;20142;-92
2021/01/11 03:59:56;;;;;;;73.72;36.55;;;;;;;;;;5019421;28;20030;-92
2021/01/11 04:02:25;;;;;;;74.00;35.10;;;;;;;;;;5019118;28;20454;-92
2021/01/11 04:07:55;;;;;;;73.43;35.88;;;;;;;;;;5019349;28;20025;-90
2021/01/11 04:10:21;;;;;;;72.03;35.05;;;;;;;;;;5019327;28;20089;-90
2021/01/11 04:12:47;;;;;;;69.53;34.97;;;;;;;;;;5018998;28;20056;-89
2021/01/11 04:15:14;;;;;;;72.13;36.38;;;;;;;;;;5019120;28;20030;-91
2021/01/11 04:17:40;;;;;;;71.65;36.30;;;;;;;;;;5018742;28;20022;-92
2021/01/11 04:26:13;;;;;;;72.50;35.63;;;;;;;;;;5018715;28;20450;-91
2021/01/11 04:28:39;;;;;;;69.57;35.53;;;;;;;;;;5017374;28;20026;-92
2021/01/11 04:31:06;;;;;;;70.03;35.50;;;;;;;;;;5018967;28;20025;-91
2021/01/11 04:33:32;;;;;;;69.60;34.58;;;;;;;;;;5018926;28;20042;-92
2021/01/11 04:35:58;;;;;;;66.85;32.97;;;;;;;;;;5018502;28;20116;-93
2021/01/11 04:38:24;;;;;;;68.70;33.90;;;;;;;;;;5019032;28;20048;-91
2021/01/11 04:40:50;;;;;;;68.45;32.85;;;;;;;;;;5018595;28;20021;-91
2021/01/11 04:43:17;;;;;;;65.75;31.30;;;;;;;;;;5018460;28;20360;-92
2021/01/11 04:45:44;;;;;;;62.42;32.17;;;;;;;;;;5018336;28;20040;-91
2021/01/11 04:48:12;;;;;;;65.57;32.13;;;;;;;;;;5018610;28;20026;-91
2021/01/11 04:50:38;;;;;;;61.72;32.38;;;;;;;;;;5017484;28;20026;-91
2021/01/11 04:53:11;;;;;;;65.35;32.15;;;;;;;;;;5018562;28;20069;-90
2021/01/11 04:55:37;;;;;;;64.50;32.42;;;;;;;;;;5018082;28;20026;-89
2021/01/11 04:58:08;;;;;;;62.22;31.67;;;;;;;;;;5018185;28;20034;-89
2021/01/11 05:00:34;;;;;;;62.63;32.33;;;;;;;;;;5018098;28;20057;-89
2021/01/11 05:03:03;;;;;;;68.05;33.33;;;;;;;;;;5018279;28;20065;-89
2021/01/11 05:05:30;;;;;;;63.55;32.33;;;;;;;;;;5018068;28;20029;-91
2021/01/11 05:07:56;;;;;;;61.72;30.65;;;;;;;;;;5018030;28;20022;-92
2021/01/11 05:10:30;;;;;;;64.93;32.10;;;;;;;;;;5016746;28;20084;-92
2021/01/11 05:13:00;;;;;;;65.80;32.28;;;;;;;;;;5017949;28;20041;-93
2021/01/11 05:15:28;;;;;;;69.20;32.25;;;;;;;;;;5017124;28;20148;-92
2021/01/11 05:17:54;;;;;;;67.53;32.65;;;;;;;;;;5017764;28;20427;-92
2021/01/11 05:20:48;;;;;;;64.70;32.20;;;;;;;;;;5016937;28;20216;-91
2021/01/11 05:23:15;;;;;;;67.70;32.63;;;;;;;;;;5016918;28;20120;-91
2021/01/11 05:25:42;;;;;;;61.08;30.92;;;;;;;;;;5017947;28;20030;-90
2021/01/11 05:28:15;;;;;;;68.25;31.92;;;;;;;;;;5018162;28;20060;-92
2021/01/11 05:30:42;;;;;;;59.45;31.20;;;;;;;;;;5017445;28;20037;-91
2021/01/11 05:33:09;;;;;;;66.45;32.72;;;;;;;;;;5016903;28;20060;-89
2021/01/11 05:35:37;;;;;;;64.88;33.67;;;;;;;;;;5017779;28;20420;-89
2021/01/11 05:38:13;;;;;;;77.90;39.30;;;;;;;;;;5017721;28;20057;-89
2021/01/11 05:40:39;;;;;;;71.88;38.80;;;;;;;;;;5017666;28;20038;-89
2021/01/11 05:43:05;;;;;;;83.13;43.75;;;;;;;;;;5017519;28;20046;-88
2021/01/11 05:45:35;;;;;;;93.20;47.80;;;;;;;;;;5018047;28;20037;-89
2021/01/11 05:48:05;;;;;;;96.03;50.97;;;;;;;;;;5017661;28;20101;-89
2021/01/11 05:53:41;;;;;;;75.20;39.08;;;;;;;;;;5018061;28;20427;-89
2021/01/11 05:56:07;;;;;;;66.60;34.08;;;;;;;;;;5017969;28;20038;-89
2021/01/11 05:58:33;;;;;;;67.05;35.70;;;;;;;;;;5017525;28;20125;-89
2021/01/11 06:00:59;;;;;;;59.80;33.33;;;;;;;;;;5017541;28;20030;-91
2021/01/11 06:03:25;;;;;;;54.60;28.75;;;;;;;;;;5017785;28;20030;-90
2021/01/11 06:08:54;;;;;;;;;;;;;;;;;;5018078;28;20110;-90
2021/01/11 06:11:21;;;;;;;56.28;27.52;;;;;;;;;;5016160;28;20303;-90
2021/01/11 06:13:48;;;;;;;62.58;30.90;;;;;;;;;;5016381;28;20053;-90
2021/01/11 06:16:18;;;;;;;59.10;29.92;;;;;;;;;;5017771;28;20033;-90
2021/01/11 06:18:45;;;;;;;62.22;32.47;;;;;;;;;;5017603;28;20034;-89
2021/01/11 06:21:11;;;;;;;68.45;33.10;;;;;;;;;;5015937;28;20095;-89
2021/01/11 06:23:39;;;;;;;80.35;37.13;;;;;;;;;;5017581;28;20033;-89
2021/01/11 06:26:23;;;;;;;91.40;40.40;;;;;;;;;;5017348;28;20030;-91
2021/01/11 06:28:49;;;;;;;72.70;35.40;;;;;;;;;;5017692;28;20033;-88
2021/01/11 06:31:15;;;;;;;69.03;35.17;;;;;;;;;;5017521;28;20018;-89
2021/01/11 06:33:42;;;;;;;59.75;31.67;;;;;;;;;;5016180;28;20109;-89
2021/01/11 06:36:18;;;;;;;62.85;32.42;;;;;;;;;;5017138;28;20049;-89
2021/01/11 06:38:45;;;;;;;57.03;29.98;;;;;;;;;;5016209;28;20033;-89
2021/01/11 06:41:12;;;;;;;64.03;31.60;;;;;;;;;;5017622;28;20026;-89
2021/01/11 06:43:38;;;;;;;64.47;32.65;;;;;;;;;;5018310;28;20089;-89
2021/01/11 06:46:05;;;;;;;65.53;32.13;;;;;;;;;;5019330;28;20037;-91
2021/01/11 06:48:34;;;;;;;59.45;32.55;;;;;;;;;;5020548;28;20396;-89
2021/01/11 06:51:07;;;;;;;71.70;34.53;;;;;;;;;;5020705;28;20030;-87
2021/01/11 06:53:33;;;;;;;73.07;34.67;;;;;;;;;;5020767;28;20033;-88
2021/01/11 06:56:05;;;;;;;81.35;37.65;;;;;;;;;;5020408;28;20022;-88
2021/01/11 06:58:36;;;;;;;74.30;33.67;;;;;;;;;;5020708;28;20026;-90
2021/01/11 07:01:03;;;;;;;66.45;31.90;;;;;;;;;;5020709;28;20052;-90
2021/01/11 07:03:44;;;;;;;79.10;36.30;;;;;;;;;;5020955;28;20332;-88
2021/01/11 07:12:18;;;;;;;79.82;35.83;;;;;;;;;;5020193;28;20116;-88
2021/01/11 07:15:01;;;;;;;80.80;36.03;;;;;;;;;;5035712;28;20038;-88
2021/01/11 07:17:40;;;;;;;77.85;36.35;;;;;;;;;;5020313;28;20022;-88
2021/01/11 07:20:07;;;;;;;71.28;32.25;;;;;;;;;;5019035;28;20037;-89
2021/01/11 07:22:33;;;;;;;65.68;33.03;;;;;;;;;;5020223;28;20033;-88
2021/01/11 07:25:06;;;;;;;68.20;31.33;;;;;;;;;;5019867;28;20026;-88
2021/01/11 07:27:31;;;;;;;;;;;;;;;;;;5020439;28;20396;-88
2021/01/11 07:29:58;;;;;;;59.95;29.83;;;;;;;;;;5019062;28;20000;-89
2021/01/11 07:32:25;;;;;;;62.33;32.05;;;;;;;;;;5019699;28;20022;-86
2021/01/11 07:34:51;;;;;;;56.60;29.55;;;;;;;;;;5035008;28;20084;-90
2021/01/11 07:37:17;;;;;;;136.50;49.92;;;;;;;;;;5035308;28;20022;-87
2021/01/11 07:39:44;;;;;;;114.90;45.47;;;;;;;;;;5019588;28;20036;-88
2021/01/11 07:42:10;;;;;;;105.90;46.13;;;;;;;;;;5034937;28;20049;-87
2021/01/11 07:44:37;;;;;;;108.70;48.80;;;;;;;;;;5019476;28;20071;-87
2021/01/11 07:47:09;;;;;;;87.45;42.83;;;;;;;;;;5019936;28;20383;-87
2021/01/11 07:49:36;;;;;;;77.43;37.47;;;;;;;;;;5020301;28;20026;-87
2021/01/11 07:52:04;;;;;;;88.97;43.58;;;;;;;;;;5018611;28;20037;-86
2021/01/11 07:54:31;;;;;;;90.40;44.05;;;;;;;;;;5019273;28;20101;-87
2021/01/11 07:56:57;;;;;;;90.38;43.58;;;;;;;;;;5018506;28;20248;-87
2021/01/11 07:59:23;;;;;;;76.10;39.47;;;;;;;;;;5019429;28;20018;-93
2021/01/11 08:01:50;;;;;;;90.90;45.97;;;;;;;;;;5019489;28;20026;-87
2021/01/11 08:04:17;;;;;;;99.22;49.15;;;;;;;;;;5019086;28;20017;-87
2021/01/11 08:07:05;;;;;;;87.28;45.72;;;;;;;;;;5019018;28;20081;-87
2021/01/11 08:09:31;;;;;;;108.00;53.83;;;;;;;;;;5018142;28;20026;-86
2021/01/11 08:12:11;;;;;;;85.13;43.95;;;;;;;;;;5018116;28;20109;-87
2021/01/11 08:14:37;;;;;;;102.63;49.00;;;;;;;;;;5019053;28;20074;-87
2021/01/11 08:17:07;;;;;;;124.57;56.03;;;;;;;;;;5019168;28;20032;-86
2021/01/11 08:19:34;;;;;;;91.10;45.67;;;;;;;;;;5019101;28;20030;-88
2021/01/11 08:25:04;;;;;;;84.88;43.03;;;;;;;;;;5018710;28;20125;-87
2021/01/11 08:27:32;;;;;;;100.60;53.35;;;;;;;;;;5018870;28;20086;-86
2021/01/11 08:30:07;;;;;;;86.10;44.30;;;;;;;;;;5018800;28;20029;-84
2021/01/11 08:32:34;;;;;;;84.57;45.28;;;;;;;;;;5018645;28;20018;-86
2021/01/11 08:35:07;;;;;;;90.57;49.58;;;;;;;;;;5019014;28;20046;-89
2021/01/11 08:40:38;;;;;;;85.50;43.40;;;;;;;;;;5019010;28;20024;-88
2021/01/11 08:43:11;;;;;;;77.75;41.45;;;;;;;;;;5017602;28;20050;-87
2021/01/11 08:45:41;;;;;;;87.10;46.95;;;;;;;;;;5018677;28;20073;-87
2021/01/11 08:48:08;;;;;;;79.70;43.63;;;;;;;;;;5018556;28;20018;-87
2021/01/11 08:50:38;;;;;;;80.43;41.08;;;;;;;;;;5018520;28;20343;-88
2021/01/11 08:56:29;;;;;;;96.88;47.33;;;;;;;;;;5018349;28;20033;-86
2021/01/11 08:58:55;;;;;;;87.25;45.17;;;;;;;;;;5018188;28;20050;-87
2021/01/11 09:01:24;;;;;;;83.55;43.70;;;;;;;;;;5017995;28;20028;-88
2021/01/11 09:03:55;;;;;;;104.00;53.33;;;;;;;;;;5017746;28;20375;-84
2021/01/11 09:06:37;;;;;;;82.90;44.50;;;;;;;;;;5017307;28;20030;-83
2021/01/11 09:09:11;;;;;;;83.93;43.20;;;;;;;;;;5018216;28;20022;-84
2021/01/11 09:11:37;;;;;;;87.07;45.65;;;;;;;;;;5018108;28;20267;-83
2021/01/11 09:14:21;;;;;;;58.50;31.85;;;;;;;;;;5017614;28;20455;-83
2021/01/11 09:16:48;;;;;;;58.83;32.42;;;;;;;;;;5018022;28;20040;-92
2021/01/11 09:19:16;;;;;;;62.75;33.05;;;;;;;;;;5033408;28;20521;-90
2021/01/11 09:24:46;;;;;;;77.93;40.30;;;;;;;;;;5018552;28;20076;-92
2021/01/11 09:27:12;;;;;;;85.65;43.40;;;;;;;;;;5017985;28;20045;-92
2021/01/11 09:29:38;;;;;;;91.28;47.38;;;;;;;;;;5034468;28;20018;-89
2021/01/11 09:32:05;;;;;;;82.90;42.15;;;;;;;;;;5033547;28;20022;-88
2021/01/11 09:34:31;;;;;;;69.65;38.40;;;;;;;;;;5017833;28;20022;-88
2021/01/11 09:37:34;;;;;;;66.43;37.95;;;;;;;;;;5032948;28;20045;-87
2021/01/11 09:40:00;;;;;;;64.55;35.55;;;;;;;;;;5017648;28;20050;-87
2021/01/11 09:42:26;;;;;;;64.20;34.75;;;;;;;;;;5017569;28;20030;-87
2021/01/11 09:44:52;;;;;;;75.85;38.92;;;;;;;;;;5017464;28;20073;-88
2021/01/11 09:47:18;;;;;;;82.75;41.03;;;;;;;;;;5018149;28;20018;-89
2021/01/11 09:49:44;;;;;;;73.05;37.72;;;;;;;;;;5017728;28;20424;-87
2021/01/11 09:52:10;;;;;;;85.13;40.88;;;;;;;;;;5018002;28;20109;-87
2021/01/11 09:54:37;;;;;;;88.72;45.20;;;;;;;;;;5017088;28;20034;-87
2021/01/11 09:57:04;;;;;;;97.38;46.20;;;;;;;;;;5016462;28;20022;-86
2021/01/11 09:59:30;;;;;;;74.53;38.20;;;;;;;;;;5000343;28;20030;-88
2021/01/11 10:01:57;;;;;;;71.05;36.95;;;;;;;;;;5013438;28;20037;-88
2021/01/11 10:04:23;;;;;;;73.70;38.33;;;;;;;;;;5017419;28;20025;-89
2021/01/11 10:06:53;;;;;;;78.88;43.20;;;;;;;;;;5017140;28;20022;-87
2021/01/11 10:09:26;;;;;;;73.35;38.08;;;;;;;;;;5004977;28;20286;-86
2021/01/11 10:11:59;;;;;;;78.10;40.17;;;;;;;;;;4996972;28;20429;-85
2021/01/11 10:14:26;;;;;;;77.30;40.28;;;;;;;;;;4996342;28;20044;-78
2021/01/11 10:16:52;;;;;;;77.03;38.80;;;;;;;;;;4997958;28;20409;-81
2021/01/11 10:19:19;;;;;;;83.40;41.13;;;;;;;;;;5001027;28;20044;-79
2021/01/11 10:21:45;;;;;;;85.03;43.78;;;;;;;;;;5001023;28;20023;-79
2021/01/11 10:24:12;;;;;;;87.97;44.95;;;;;;;;;;5000732;28;20019;-79
2021/01/11 10:26:41;;;;;;;88.15;44.95;;;;;;;;;;5000620;28;20038;-79
2021/01/11 10:29:07;;;;;;;75.55;37.67;;;;;;;;;;4999867;28;20037;-80
2021/01/11 10:31:33;;;;;;;64.45;34.15;;;;;;;;;;5000773;28;20034;-79
2021/01/11 10:33:59;;;;;;;73.45;38.15;;;;;;;;;;5000602;28;20034;-80
2021/01/11 10:36:25;;;;;;;58.80;30.48;;;;;;;;;;5000444;28;20435;-80
2021/01/11 10:38:51;;;;;;;58.20;31.73;;;;;;;;;;5002264;28;20033;-80
2021/01/11 10:41:18;;;;;;;72.45;38.15;;;;;;;;;;5000662;28;20113;-79
2021/01/11 10:43:46;;;;;;;71.75;37.88;;;;;;;;;;5000636;28;20031;-79
2021/01/11 10:46:12;;;;;;;70.53;35.58;;;;;;;;;;5000271;28;20413;-78
2021/01/11 10:48:41;;;;;;;66.72;32.65;;;;;;;;;;5000297;28;20037;-81
2021/01/11 10:51:10;;;;;;;53.58;29.05;;;;;;;;;;5000432;28;20377;-79
2021/01/11 10:53:37;;;;;;;53.30;28.52;;;;;;;;;;4998003;28;20046;-79
2021/01/11 10:56:03;;;;;;;55.17;30.00;;;;;;;;;;4998467;28;20030;-79
2021/01/11 10:58:29;;;;;;;66.43;35.10;;;;;;;;;;5000542;28;20065;-79
2021/01/11 11:00:55;;;;;;;58.15;31.35;;;;;;;;;;5000276;28;20030;-80
2021/01/11 11:03:21;;;;;;;77.30;39.00;;;;;;;;;;5000272;28;20031;-80
2021/01/11 11:05:49;;;;;;;62.92;34.97;;;;;;;;;;5000107;28;20061;-79
2021/01/11 11:08:15;;;;;;;65.22;36.75;;;;;;;;;;5000031;28;20026;-80
2021/01/11 11:10:41;;;;;;;65.07;35.25;;;;;;;;;;5000236;28;20102;-79
2021/01/11 11:13:07;;;;;;;84.05;42.95;;;;;;;;;;4999781;28;20046;-79
2021/01/11 11:15:35;;;;;;;81.32;40.65;;;;;;;;;;5000001;28;20034;-79
2021/01/11 11:18:01;;;;;;;68.18;36.88;;;;;;;;;;5000084;28;20092;-80
2021/01/11 11:20:27;;;;;;;59.67;32.60;;;;;;;;;;4998406;28;20038;-78
2021/01/11 11:22:53;;;;;;;56.83;31.35;;;;;;;;;;4999706;28;20100;-80
2021/01/11 11:25:20;;;;;;;51.38;28.95;;;;;;;;;;4999624;28;20027;-78
2021/01/11 11:27:48;;;;;;;51.80;27.88;;;;;;;;;;4999720;28;20018;-78
2021/01/11 11:30:14;;;;;;;53.38;29.10;;;;;;;;;;4998974;28;20321;-78
2021/01/11 11:32:44;;;;;;;52.00;27.20;;;;;;;;;;4999313;28;20033;-79
2021/01/11 11:35:12;;;;;;;54.65;29.92;;;;;;;;;;5007732;28;20030;-79
2021/01/11 11:37:38;;;;;;;50.33;28.63;;;;;;;;;;5001499;28;20038;-79
2021/01/11 11:40:04;;;;;;;54.90;29.50;;;;;;;;;;4999587;28;20026;-78
2021/01/11 11:42:34;;;;;;;56.75;30.50;;;;;;;;;;4999441;28;20030;-79
2021/01/11 11:45:00;;;;;;;50.42;27.75;;;;;;;;;;4998191;28;20311;-79
2021/01/11 11:47:27;;;;;;;56.72;29.58;;;;;;;;;;4998304;28;20026;-79
2021/01/11 11:49:53;;;;;;;52.67;29.73;;;;;;;;;;4998241;28;20026;-79
2021/01/11 11:52:19;;;;;;;55.65;31.60;;;;;;;;;;4999022;28;20417;-80
2021/01/11 11:54:45;;;;;;;62.35;32.38;;;;;;;;;;4998841;28;20376;-80
2021/01/11 11:57:11;;;;;;;60.35;32.22;;;;;;;;;;4998095;28;20022;-80
2021/01/11 11:59:37;;;;;;;66.25;34.42;;;;;;;;;;4999357;28;20065;-81
2021/01/11 12:02:03;;;;;;;68.20;34.17;;;;;;;;;;4999006;28;20027;-81
2021/01/11 12:04:29;;;;;;;62.85;34.03;;;;;;;;;;4998835;28;20030;-80
2021/01/11 12:06:56;;;;;;;73.57;39.30;;;;;;;;;;4998925;28;20027;-81
2021/01/11 12:09:22;;;;;;;69.30;39.20;;;;;;;;;;4998948;28;20042;-81
2021/01/11 12:11:53;;;;;;;68.40;38.63;;;;;;;;;;4998736;28;20029;-82
2021/01/11 12:14:19;;;;;;;70.25;37.58;;;;;;;;;;4999158;28;20069;-81
2021/01/11 12:16:49;;;;;;;73.88;39.45;;;;;;;;;;4998786;28;20023;-81
2021/01/11 12:19:15;;;;;;;71.07;37.95;;;;;;;;;;4998769;28;20027;-81
2021/01/11 12:21:41;;;;;;;75.25;39.95;;;;;;;;;;4997718;28;20022;-81
2021/01/11 12:24:10;;;;;;;84.57;45.33;;;;;;;;;;4997560;28;20050;-81
2021/01/11 12:26:45;;;;;;;81.70;41.42;;;;;;;;;;4997544;28;20495;-80
2021/01/11 12:29:11;;;;;;;103.80;52.88;;;;;;;;;;4997625;28;20062;-80
2021/01/11 12:31:38;;;;;;;85.28;45.15;;;;;;;;;;4997246;28;20030;-81
2021/01/11 12:34:05;;;;;;;68.05;37.22;;;;;;;;;;4998672;28;20053;-80
2021/01/11 12:36:31;;;;;;;72.18;38.90;;;;;;;;;;4998607;28;20026;-81
2021/01/11 12:38:59;;;;;;;72.60;38.33;;;;;;;;;;4998380;28;20298;-82
2021/01/11 12:41:26;;;;;;;75.88;40.90;;;;;;;;;;4998523;28;20041;-82
2021/01/11 12:43:52;;;;;;;76.93;40.35;;;;;;;;;;4998559;28;20045;-80
2021/01/11 12:46:19;;;;;;;127.20;43.17;;;;;;;;;;4998202;28;20029;-79
2021/01/11 12:48:45;;;;;;;75.93;37.17;;;;;;;;;;4998169;28;20022;-77
2021/01/11 12:51:15;;;;;;;71.97;39.53;;;;;;;;;;4998232;28;20106;-80
2021/01/11 12:53:44;;;;;;;73.90;34.95;;;;;;;;;;4997394;28;20019;-82
2021/01/11 12:56:14;;;;;;;73.40;38.47;;;;;;;;;;4998006;28;20033;-82
2021/01/11 12:58:40;;;;;;;65.13;35.55;;;;;;;;;;4998399;28;20101;-81
2021/01/11 13:01:06;;;;;;;66.13;37.67;;;;;;;;;;4998336;28;20033;-82
2021/01/11 13:03:32;;;;;;;83.47;39.33;;;;;;;;;;4998149;28;20030;-82
2021/01/11 13:05:59;;;;;;;72.03;37.92;;;;;;;;;;4997069;28;20030;-81
2021/01/11 13:08:25;;;;;;;65.68;37.20;;;;;;;;;;5003317;28;20046;-81
2021/01/11 13:10:51;;;;;;;60.67;34.55;;;;;;;;;;4998584;28;20309;-84
2021/01/11 13:13:17;;;;;;;68.35;37.33;;;;;;;;;;5014930;28;20403;-81
2021/01/11 13:15:46;;;;;;;61.67;33.63;;;;;;;;;;5017710;28;20029;-81
2021/01/11 13:18:13;;;;;;;67.05;35.28;;;;;;;;;;5017841;28;20068;-81
2021/01/11 13:20:39;;;;;;;60.67;34.20;;;;;;;;;;5016416;28;20026;-80
2021/01/11 13:23:05;;;;;;;132.05;54.10;;;;;;;;;;5017281;28;20026;-82
2021/01/11 13:25:31;;;;;;;265.02;106.63;;;;;;;;;;5017058;28;20026;-81
2021/01/11 13:27:58;;;;;;;163.57;79.85;;;;;;;;;;5017631;28;20302;-80
2021/01/11 13:30:24;;;;;;;115.70;58.75;;;;;;;;;;5017336;28;20041;-80
2021/01/11 13:32:53;;;;;;;78.20;42.42;;;;;;;;;;5015871;28;20312;-81
2021/01/11 13:35:19;;;;;;;77.65;42.00;;;;;;;;;;5017403;28;20030;-81
2021/01/11 13:37:45;;;;;;;78.93;41.05;;;;;;;;;;5017441;28;20052;-81
2021/01/11 13:40:12;;;;;;;71.35;38.88;;;;;;;;;;5017580;28;20076;-80
2021/01/11 13:42:38;;;;;;;66.65;38.10;;;;;;;;;;5017158;28;20137;-81
2021/01/11 13:45:05;;;;;;;71.75;37.17;;;;;;;;;;5017291;28;20029;-81
2021/01/11 13:47:31;;;;;;;65.25;36.05;;;;;;;;;;5017340;28;20037;-82
2021/01/11 13:49:57;;;;;;;55.92;33.80;;;;;;;;;;5017114;28;20029;-81
2021/01/11 13:52:23;;;;;;;64.88;33.75;;;;;;;;;;5019038;28;20018;-80
2021/01/11 13:54:49;;;;;;;63.50;32.22;;;;;;;;;;5020719;28;20030;-82
2021/01/11 13:57:19;;;;;;;61.80;32.33;;;;;;;;;;5020328;28;20037;-81
2021/01/11 13:59:45;;;;;;;61.97;33.22;;;;;;;;;;5021164;28;20122;-82
2021/01/11 14:02:11;;;;;;;60.47;33.60;;;;;;;;;;5021157;28;20030;-82
2021/01/11 14:04:37;;;;;;;63.05;34.88;;;;;;;;;;5021010;28;20041;-81
2021/01/11 14:07:03;;;;;;;60.58;33.42;;;;;;;;;;5020056;28;20033;-89
2021/01/11 14:09:29;;;;;;;64.93;34.38;;;;;;;;;;5020050;28;20045;-79
2021/01/11 14:11:58;;;;;;;73.20;37.78;;;;;;;;;;5020361;28;20033;-80
2021/01/11 14:14:26;;;;;;;73.93;38.67;;;;;;;;;;5019782;28;20061;-81
2021/01/11 14:16:52;;;;;;;84.07;42.75;;;;;;;;;;5020801;28;20069;-79
2021/01/11 14:19:18;;;;;;;96.03;53.15;;;;;;;;;;5020521;28;20042;-80
2021/01/11 14:21:48;;;;;;;104.07;52.47;;;;;;;;;;5020638;28;20053;-80
2021/01/11 14:24:14;;;;;;;118.35;62.58;;;;;;;;;;5020498;28;20052;-78
2021/01/11 14:26:40;;;;;;;98.78;54.20;;;;;;;;;;5020607;28;20030;-79
2021/01/11 14:29:07;;;;;;;141.52;74.55;;;;;;;;;;5020699;28;20022;-79
2021/01/11 14:31:33;;;;;;;180.77;87.90;;;;;;;;;;5020476;28;20060;-79
2021/01/11 14:33:59;;;;;;;166.77;71.32;;;;;;;;;;5020412;28;20022;-80
2021/01/11 14:36:27;;;;;;;152.00;64.00;;;;;;;;;;5020302;28;20034;-78
2021/01/11 14:38:55;;;;;;;189.50;66.72;;;;;;;;;;5020192;28;20072;-80
2021/01/11 14:41:21;;;;;;;149.38;56.03;;;;;;;;;;5020456;28;20053;-80
2021/01/11 14:43:47;;;;;;;157.20;64.32;;;;;;;;;;5020154;28;20034;-78
2021/01/11 14:46:21;;;;;;;170.35;72.32;;;;;;;;;;5019112;28;20073;-80
2021/01/11 14:48:47;;;;;;;105.68;50.13;;;;;;;;;;5020245;28;20355;-79
2021/01/11 14:51:13;;;;;;;138.32;62.10;;;;;;;;;;5019997;28;20097;-79
2021/01/11 14:53:39;;;;;;;148.85;71.55;;;;;;;;;;5020194;28;20018;-79
2021/01/11 14:56:06;;;;;;;151.93;70.22;;;;;;;;;;5020231;28;20109;-79
2021/01/11 14:58:32;;;;;;;105.30;49.25;;;;;;;;;;5020080;28;20026;-78
2021/01/11 15:00:58;;;;;;;97.60;47.97;;;;;;;;;;5019992;28;20026;-80
2021/01/11 15:03:25;;;;;;;92.25;44.22;;;;;;;;;;5017490;28;20045;-80
2021/01/11 15:05:51;;;;;;;75.45;38.53;;;;;;;;;;5018399;28;20021;-79
2021/01/11 15:08:17;;;;;;;80.05;40.53;;;;;;;;;;5015915;28;20072;-79
2021/01/11 15:10:43;;;;;;;82.65;40.78;;;;;;;;;;5009146;28;20037;-79